sensor_id;sensor_type;location;lat;lon;timestamp;temperature;humidity
21425;DHT22;10873;51.132;16.848;2024-01-27T00:01:12;23.50;46.90
21425;DHT22;10873;51.132;16.848;2024-01-27T00:03:45;23.50;46.90
21425;DHT22;10873;51.132;16.848;2024-01-27T00:06:11;23.50;46.90
21425;DHT22;10873;51.132;16.848;2024-01-27T00:08:39;23.50;46.90
21425;DHT22;10873;51.132;16.848;2024-01-27T00:11:05;23.50;46.90
21425;DHT22;10873;51.132;16.848;2024-01-27T00:13:33;23.50;46.90
21425;DHT22;10873;51.132;16.848;2024-01-27T00:15:59;23.50;46.90
21425;DHT22;10873;51.132;16.848;2024-01-27T00:18:25;23.50;46.80
21425;DHT22;10873;51.132;16.848;2024-01-27T00:20:51;23.50;46.70
21425;DHT22;10873;51.132;16.848;2024-01-27T00:23:18;23.50;46.70
21425;DHT22;10873;51.132;16.848;2024-01-27T00:25:48;23.50;46.60
21425;DHT22;10873;51.132;16.848;2024-01-27T00:28:14;23.50;46.50
21425;DHT22;10873;51.132;16.848;2024-01-27T00:30:40;23.50;46.50
21425;DHT22;10873;51.132;16.848;2024-01-27T00:33:08;23.50;46.50
21425;DHT22;10873;51.132;16.848;2024-01-27T00:35:34;23.50;46.50
21425;DHT22;10873;51.132;16.848;2024-01-27T00:38:04;23.50;46.50
21425;DHT22;10873;51.132;16.848;2024-01-27T00:40:30;23.50;46.50
21425;DHT22;10873;51.132;16.848;2024-01-27T00:42:58;23.50;46.50
21425;DHT22;10873;51.132;16.848;2024-01-27T00:45:25;23.40;46.40
21425;DHT22;10873;51.132;16.848;2024-01-27T00:47:53;23.50;46.50
21425;DHT22;10873;51.132;16.848;2024-01-27T00:50:20;23.40;46.30
21425;DHT22;10873;51.132;16.848;2024-01-27T00:52:46;23.50;46.30
21425;DHT22;10873;51.132;16.848;2024-01-27T00:55:12;23.50;46.20
21425;DHT22;10873;51.132;16.848;2024-01-27T00:57:38;23.50;46.20
21425;DHT22;10873;51.132;16.848;2024-01-27T01:00:11;23.50;46.20
21425;DHT22;10873;51.132;16.848;2024-01-27T01:02:38;23.50;46.10
21425;DHT22;10873;51.132;16.848;2024-01-27T01:05:05;23.50;46.10
21425;DHT22;10873;51.132;16.848;2024-01-27T01:07:31;23.50;46.10
21425;DHT22;10873;51.132;16.848;2024-01-27T01:09:57;23.40;46.00
21425;DHT22;10873;51.132;16.848;2024-01-27T01:12:24;23.40;46.00
21425;DHT22;10873;51.132;16.848;2024-01-27T01:14:54;23.40;46.00
21425;DHT22;10873;51.132;16.848;2024-01-27T01:17:21;23.40;46.00
21425;DHT22;10873;51.132;16.848;2024-01-27T01:19:47;23.40;46.00
21425;DHT22;10873;51.132;16.848;2024-01-27T01:22:16;23.40;45.90
21425;DHT22;10873;51.132;16.848;2024-01-27T01:24:42;23.40;45.90
21425;DHT22;10873;51.132;16.848;2024-01-27T01:27:11;23.50;46.00
21425;DHT22;10873;51.132;16.848;2024-01-27T01:29:39;23.50;45.90
21425;DHT22;10873;51.132;16.848;2024-01-27T01:32:08;23.50;45.90
21425;DHT22;10873;51.132;16.848;2024-01-27T01:34:35;23.50;45.90
21425;DHT22;10873;51.132;16.848;2024-01-27T01:37:02;23.50;45.90
21425;DHT22;10873;51.132;16.848;2024-01-27T01:39:28;23.50;45.90
21425;DHT22;10873;51.132;16.848;2024-01-27T01:41:55;23.50;45.90
21425;DHT22;10873;51.132;16.848;2024-01-27T01:44:21;23.50;45.90
21425;DHT22;10873;51.132;16.848;2024-01-27T01:46:47;23.50;45.90
21425;DHT22;10873;51.132;16.848;2024-01-27T01:49:14;23.40;45.80
21425;DHT22;10873;51.132;16.848;2024-01-27T01:51:43;23.40;45.80
21425;DHT22;10873;51.132;16.848;2024-01-27T01:54:09;23.50;46.00
21425;DHT22;10873;51.132;16.848;2024-01-27T01:56:37;23.50;46.00
21425;DHT22;10873;51.132;16.848;2024-01-27T01:59:03;23.50;45.90
21425;DHT22;10873;51.132;16.848;2024-01-27T02:01:29;23.50;45.80
21425;DHT22;10873;51.132;16.848;2024-01-27T02:03:55;23.50;45.80
21425;DHT22;10873;51.132;16.848;2024-01-27T02:06:23;23.50;45.80
21425;DHT22;10873;51.132;16.848;2024-01-27T02:08:51;23.50;45.70
21425;DHT22;10873;51.132;16.848;2024-01-27T02:11:17;23.50;45.70
21425;DHT22;10873;51.132;16.848;2024-01-27T02:13:43;23.40;45.60
21425;DHT22;10873;51.132;16.848;2024-01-27T02:16:11;23.50;45.70
21425;DHT22;10873;51.132;16.848;2024-01-27T02:18:38;23.40;45.70
21425;DHT22;10873;51.132;16.848;2024-01-27T02:21:04;23.40;45.70
21425;DHT22;10873;51.132;16.848;2024-01-27T02:23:31;23.40;45.70
21425;DHT22;10873;51.132;16.848;2024-01-27T02:25:59;23.40;45.70
21425;DHT22;10873;51.132;16.848;2024-01-27T02:28:25;23.40;45.70
21425;DHT22;10873;51.132;16.848;2024-01-27T02:30:51;23.50;45.80
21425;DHT22;10873;51.132;16.848;2024-01-27T02:33:18;23.50;45.70
21425;DHT22;10873;51.132;16.848;2024-01-27T02:35:44;23.50;45.70
21425;DHT22;10873;51.132;16.848;2024-01-27T02:38:11;23.50;45.60
21425;DHT22;10873;51.132;16.848;2024-01-27T02:40:37;23.50;45.60
21425;DHT22;10873;51.132;16.848;2024-01-27T02:43:05;23.50;45.60
21425;DHT22;10873;51.132;16.848;2024-01-27T02:45:31;23.50;45.60
21425;DHT22;10873;51.132;16.848;2024-01-27T02:47:58;23.50;45.60
21425;DHT22;10873;51.132;16.848;2024-01-27T02:50:24;23.50;45.60
21425;DHT22;10873;51.132;16.848;2024-01-27T02:52:50;23.40;45.50
21425;DHT22;10873;51.132;16.848;2024-01-27T02:55:17;23.40;45.50
21425;DHT22;10873;51.132;16.848;2024-01-27T02:57:45;23.40;45.50
21425;DHT22;10873;51.132;16.848;2024-01-27T03:00:20;23.40;45.50
21425;DHT22;10873;51.132;16.848;2024-01-27T03:02:46;23.40;45.50
21425;DHT22;10873;51.132;16.848;2024-01-27T03:05:17;23.40;45.60
21425;DHT22;10873;51.132;16.848;2024-01-27T03:07:43;23.40;45.50
21425;DHT22;10873;51.132;16.848;2024-01-27T03:10:10;23.50;45.50
21425;DHT22;10873;51.132;16.848;2024-01-27T03:12:36;23.40;45.40
21425;DHT22;10873;51.132;16.848;2024-01-27T03:15:04;23.40;45.30
21425;DHT22;10873;51.132;16.848;2024-01-27T03:17:31;23.40;45.30
21425;DHT22;10873;51.132;16.848;2024-01-27T03:19:58;23.40;45.30
21425;DHT22;10873;51.132;16.848;2024-01-27T03:22:24;23.40;45.20
21425;DHT22;10873;51.132;16.848;2024-01-27T03:24:50;23.40;45.20
21425;DHT22;10873;51.132;16.848;2024-01-27T03:27:19;23.40;45.20
21425;DHT22;10873;51.132;16.848;2024-01-27T03:29:45;23.40;45.20
21425;DHT22;10873;51.132;16.848;2024-01-27T03:32:11;23.40;45.20
21425;DHT22;10873;51.132;16.848;2024-01-27T03:34:43;23.40;45.20
21425;DHT22;10873;51.132;16.848;2024-01-27T03:37:09;23.40;45.10
21425;DHT22;10873;51.132;16.848;2024-01-27T03:39:35;23.40;45.10
21425;DHT22;10873;51.132;16.848;2024-01-27T03:42:01;23.40;45.10
21425;DHT22;10873;51.132;16.848;2024-01-27T03:44:27;23.40;45.00
21425;DHT22;10873;51.132;16.848;2024-01-27T03:46:53;23.40;44.90
21425;DHT22;10873;51.132;16.848;2024-01-27T03:49:20;23.40;44.80
21425;DHT22;10873;51.132;16.848;2024-01-27T03:51:51;23.40;44.80
21425;DHT22;10873;51.132;16.848;2024-01-27T03:54:17;23.40;44.80
21425;DHT22;10873;51.132;16.848;2024-01-27T03:56:44;23.40;44.80
21425;DHT22;10873;51.132;16.848;2024-01-27T03:59:10;23.40;44.70
21425;DHT22;10873;51.132;16.848;2024-01-27T04:01:37;23.40;44.70
21425;DHT22;10873;51.132;16.848;2024-01-27T04:04:04;23.40;44.70
21425;DHT22;10873;51.132;16.848;2024-01-27T04:06:36;23.40;44.80
21425;DHT22;10873;51.132;16.848;2024-01-27T04:09:04;23.40;45.40
21425;DHT22;10873;51.132;16.848;2024-01-27T04:11:31;23.40;44.80
21425;DHT22;10873;51.132;16.848;2024-01-27T04:13:57;23.40;44.80
21425;DHT22;10873;51.132;16.848;2024-01-27T04:16:23;23.40;44.70
21425;DHT22;10873;51.132;16.848;2024-01-27T04:18:49;23.50;44.90
21425;DHT22;10873;51.132;16.848;2024-01-27T04:21:15;23.50;44.80
21425;DHT22;10873;51.132;16.848;2024-01-27T04:23:44;23.50;44.70
21425;DHT22;10873;51.132;16.848;2024-01-27T04:26:11;23.50;44.70
21425;DHT22;10873;51.132;16.848;2024-01-27T04:28:38;23.50;44.70
21425;DHT22;10873;51.132;16.848;2024-01-27T04:31:04;23.50;44.60
21425;DHT22;10873;51.132;16.848;2024-01-27T04:33:31;23.50;44.60
21425;DHT22;10873;51.132;16.848;2024-01-27T04:35:57;23.50;44.60
21425;DHT22;10873;51.132;16.848;2024-01-27T04:38:23;23.50;44.60
21425;DHT22;10873;51.132;16.848;2024-01-27T04:40:50;23.50;44.60
21425;DHT22;10873;51.132;16.848;2024-01-27T04:43:21;23.50;44.60
21425;DHT22;10873;51.132;16.848;2024-01-27T04:45:47;23.50;44.70
21425;DHT22;10873;51.132;16.848;2024-01-27T04:48:16;23.50;44.70
21425;DHT22;10873;51.132;16.848;2024-01-27T04:50:42;23.50;44.80
21425;DHT22;10873;51.132;16.848;2024-01-27T04:53:09;23.50;44.80
21425;DHT22;10873;51.132;16.848;2024-01-27T04:55:37;23.50;44.70
21425;DHT22;10873;51.132;16.848;2024-01-27T04:58:04;23.50;44.70
21425;DHT22;10873;51.132;16.848;2024-01-27T05:00:31;23.50;44.60
21425;DHT22;10873;51.132;16.848;2024-01-27T05:02:57;23.50;44.60
21425;DHT22;10873;51.132;16.848;2024-01-27T05:05:28;23.50;44.60
21425;DHT22;10873;51.132;16.848;2024-01-27T05:07:57;23.50;44.50
21425;DHT22;10873;51.132;16.848;2024-01-27T05:10:34;23.50;44.60
21425;DHT22;10873;51.132;16.848;2024-01-27T05:13:13;23.50;44.60
21425;DHT22;10873;51.132;16.848;2024-01-27T05:15:40;23.50;44.50
21425;DHT22;10873;51.132;16.848;2024-01-27T05:18:07;23.50;44.50
21425;DHT22;10873;51.132;16.848;2024-01-27T05:20:34;23.50;44.50
21425;DHT22;10873;51.132;16.848;2024-01-27T05:23:00;23.50;44.60
21425;DHT22;10873;51.132;16.848;2024-01-27T05:25:26;23.50;44.60
21425;DHT22;10873;51.132;16.848;2024-01-27T05:27:53;23.50;44.60
21425;DHT22;10873;51.132;16.848;2024-01-27T05:30:19;23.50;44.60
21425;DHT22;10873;51.132;16.848;2024-01-27T05:32:50;23.50;44.60
21425;DHT22;10873;51.132;16.848;2024-01-27T05:35:16;23.50;44.60
21425;DHT22;10873;51.132;16.848;2024-01-27T05:37:43;23.50;44.50
21425;DHT22;10873;51.132;16.848;2024-01-27T05:40:12;23.50;44.50
21425;DHT22;10873;51.132;16.848;2024-01-27T05:42:39;23.50;44.50
21425;DHT22;10873;51.132;16.848;2024-01-27T05:45:08;23.50;44.50
21425;DHT22;10873;51.132;16.848;2024-01-27T05:47:36;23.50;44.50
21425;DHT22;10873;51.132;16.848;2024-01-27T05:50:04;23.50;44.50
21425;DHT22;10873;51.132;16.848;2024-01-27T05:52:30;23.50;44.50
21425;DHT22;10873;51.132;16.848;2024-01-27T05:54:56;23.50;44.50
21425;DHT22;10873;51.132;16.848;2024-01-27T05:57:22;23.40;44.40
21425;DHT22;10873;51.132;16.848;2024-01-27T05:59:48;23.40;44.50
21425;DHT22;10873;51.132;16.848;2024-01-27T06:02:15;23.40;44.50
21425;DHT22;10873;51.132;16.848;2024-01-27T06:04:43;23.50;44.60
21425;DHT22;10873;51.132;16.848;2024-01-27T06:07:11;23.50;44.50
21425;DHT22;10873;51.132;16.848;2024-01-27T06:09:37;23.50;44.40
21425;DHT22;10873;51.132;16.848;2024-01-27T06:12:04;23.50;44.40
21425;DHT22;10873;51.132;16.848;2024-01-27T06:14:30;23.50;44.40
21425;DHT22;10873;51.132;16.848;2024-01-27T06:16:57;23.50;44.30
21425;DHT22;10873;51.132;16.848;2024-01-27T06:19:23;23.50;44.30
21425;DHT22;10873;51.132;16.848;2024-01-27T06:21:50;23.50;44.30
21425;DHT22;10873;51.132;16.848;2024-01-27T06:24:17;23.50;44.30
21425;DHT22;10873;51.132;16.848;2024-01-27T06:26:43;23.40;44.20
21425;DHT22;10873;51.132;16.848;2024-01-27T06:29:09;23.40;44.20
21425;DHT22;10873;51.132;16.848;2024-01-27T06:31:35;23.40;44.20
21425;DHT22;10873;51.132;16.848;2024-01-27T06:34:01;23.40;44.20
21425;DHT22;10873;51.132;16.848;2024-01-27T06:36:27;23.40;44.20
21425;DHT22;10873;51.132;16.848;2024-01-27T06:38:53;23.40;44.20
21425;DHT22;10873;51.132;16.848;2024-01-27T06:41:22;23.50;44.30
21425;DHT22;10873;51.132;16.848;2024-01-27T06:43:47;23.50;44.20
21425;DHT22;10873;51.132;16.848;2024-01-27T06:46:14;23.50;44.20
21425;DHT22;10873;51.132;16.848;2024-01-27T06:48:40;23.50;44.20
21425;DHT22;10873;51.132;16.848;2024-01-27T06:51:07;23.50;44.20
21425;DHT22;10873;51.132;16.848;2024-01-27T06:53:33;23.50;44.20
21425;DHT22;10873;51.132;16.848;2024-01-27T06:55:59;23.40;44.20
21425;DHT22;10873;51.132;16.848;2024-01-27T06:58:26;23.50;44.40
21425;DHT22;10873;51.132;16.848;2024-01-27T07:00:53;23.40;44.40
21425;DHT22;10873;51.132;16.848;2024-01-27T07:03:19;23.40;44.40
21425;DHT22;10873;51.132;16.848;2024-01-27T07:05:48;23.40;44.50
21425;DHT22;10873;51.132;16.848;2024-01-27T07:08:14;23.40;44.50
21425;DHT22;10873;51.132;16.848;2024-01-27T07:10:41;23.50;44.50
21425;DHT22;10873;51.132;16.848;2024-01-27T07:13:07;23.50;44.50
21425;DHT22;10873;51.132;16.848;2024-01-27T07:15:35;23.50;44.50
21425;DHT22;10873;51.132;16.848;2024-01-27T07:18:03;23.50;44.50
21425;DHT22;10873;51.132;16.848;2024-01-27T07:20:31;23.50;44.50
21425;DHT22;10873;51.132;16.848;2024-01-27T07:22:57;23.50;44.50
21425;DHT22;10873;51.132;16.848;2024-01-27T07:25:23;23.50;44.50
21425;DHT22;10873;51.132;16.848;2024-01-27T07:27:49;23.50;45.20
21425;DHT22;10873;51.132;16.848;2024-01-27T07:30:15;23.50;44.50
21425;DHT22;10873;51.132;16.848;2024-01-27T07:32:43;23.50;44.50
21425;DHT22;10873;51.132;16.848;2024-01-27T07:35:10;23.50;44.50
21425;DHT22;10873;51.132;16.848;2024-01-27T07:37:37;23.50;44.50
21425;DHT22;10873;51.132;16.848;2024-01-27T07:40:04;23.50;44.30
21425;DHT22;10873;51.132;16.848;2024-01-27T07:42:31;23.50;44.30
21425;DHT22;10873;51.132;16.848;2024-01-27T07:44:57;23.50;44.20
21425;DHT22;10873;51.132;16.848;2024-01-27T07:47:23;23.50;44.20
21425;DHT22;10873;51.132;16.848;2024-01-27T07:49:51;23.50;44.30
21425;DHT22;10873;51.132;16.848;2024-01-27T07:52:17;23.40;44.20
21425;DHT22;10873;51.132;16.848;2024-01-27T07:54:43;23.50;44.30
21425;DHT22;10873;51.132;16.848;2024-01-27T07:57:12;23.40;45.80
21425;DHT22;10873;51.132;16.848;2024-01-27T07:59:38;23.40;45.80
21425;DHT22;10873;51.132;16.848;2024-01-27T08:02:05;23.40;45.50
21425;DHT22;10873;51.132;16.848;2024-01-27T08:04:31;23.40;45.20
21425;DHT22;10873;51.132;16.848;2024-01-27T08:07:03;23.40;45.00
21425;DHT22;10873;51.132;16.848;2024-01-27T08:09:35;23.30;44.70
21425;DHT22;10873;51.132;16.848;2024-01-27T08:12:01;23.30;45.10
21425;DHT22;10873;51.132;16.848;2024-01-27T08:14:31;23.30;44.30
21425;DHT22;10873;51.132;16.848;2024-01-27T08:16:57;23.40;44.10
21425;DHT22;10873;51.132;16.848;2024-01-27T08:19:24;23.30;43.80
21425;DHT22;10873;51.132;16.848;2024-01-27T08:21:50;23.30;43.60
21425;DHT22;10873;51.132;16.848;2024-01-27T08:24:18;23.30;44.20
21425;DHT22;10873;51.132;16.848;2024-01-27T08:26:43;23.30;43.50
21425;DHT22;10873;51.132;16.848;2024-01-27T08:29:10;23.20;43.30
21425;DHT22;10873;51.132;16.848;2024-01-27T08:31:36;23.20;43.30
21425;DHT22;10873;51.132;16.848;2024-01-27T08:34:05;23.20;43.20
21425;DHT22;10873;51.132;16.848;2024-01-27T08:36:32;23.20;43.20
21425;DHT22;10873;51.132;16.848;2024-01-27T08:38:59;23.20;43.20
21425;DHT22;10873;51.132;16.848;2024-01-27T08:41:27;23.10;43.10
21425;DHT22;10873;51.132;16.848;2024-01-27T08:43:54;23.10;43.10
21425;DHT22;10873;51.132;16.848;2024-01-27T08:46:20;23.10;43.10
21425;DHT22;10873;51.132;16.848;2024-01-27T08:48:49;23.10;43.20
21425;DHT22;10873;51.132;16.848;2024-01-27T08:51:16;23.10;43.20
21425;DHT22;10873;51.132;16.848;2024-01-27T08:53:44;23.10;43.20
21425;DHT22;10873;51.132;16.848;2024-01-27T08:56:16;23.10;43.30
21425;DHT22;10873;51.132;16.848;2024-01-27T08:58:47;23.00;43.10
21425;DHT22;10873;51.132;16.848;2024-01-27T09:01:13;23.00;43.00
21425;DHT22;10873;51.132;16.848;2024-01-27T09:03:41;23.00;43.10
21425;DHT22;10873;51.132;16.848;2024-01-27T09:06:07;22.90;43.10
21425;DHT22;10873;51.132;16.848;2024-01-27T09:08:33;23.00;43.20
21425;DHT22;10873;51.132;16.848;2024-01-27T09:11:00;23.00;43.20
21425;DHT22;10873;51.132;16.848;2024-01-27T09:13:27;23.00;43.10
21425;DHT22;10873;51.132;16.848;2024-01-27T09:15:57;23.00;43.00
21425;DHT22;10873;51.132;16.848;2024-01-27T09:18:24;23.00;43.00
21425;DHT22;10873;51.132;16.848;2024-01-27T09:20:50;23.00;43.00
21425;DHT22;10873;51.132;16.848;2024-01-27T09:23:17;23.00;42.90
21425;DHT22;10873;51.132;16.848;2024-01-27T09:25:43;23.00;42.90
21425;DHT22;10873;51.132;16.848;2024-01-27T09:28:09;23.00;42.90
21425;DHT22;10873;51.132;16.848;2024-01-27T09:30:35;23.00;42.90
21425;DHT22;10873;51.132;16.848;2024-01-27T09:33:03;23.00;42.90
21425;DHT22;10873;51.132;16.848;2024-01-27T09:35:29;23.00;42.80
21425;DHT22;10873;51.132;16.848;2024-01-27T09:37:55;23.00;42.80
21425;DHT22;10873;51.132;16.848;2024-01-27T09:40:21;23.00;42.70
21425;DHT22;10873;51.132;16.848;2024-01-27T09:42:51;22.90;42.70
21425;DHT22;10873;51.132;16.848;2024-01-27T09:45:21;22.90;42.70
21425;DHT22;10873;51.132;16.848;2024-01-27T09:47:49;22.90;43.90
21425;DHT22;10873;51.132;16.848;2024-01-27T09:50:18;22.90;45.20
21425;DHT22;10873;51.132;16.848;2024-01-27T09:52:45;22.90;45.60
21425;DHT22;10873;51.132;16.848;2024-01-27T09:55:11;22.90;45.80
21425;DHT22;10873;51.132;16.848;2024-01-27T09:57:38;22.80;46.10
21425;DHT22;10873;51.132;16.848;2024-01-27T10:00:09;22.80;46.70
21425;DHT22;10873;51.132;16.848;2024-01-27T10:02:39;22.90;47.00
21425;DHT22;10873;51.132;16.848;2024-01-27T10:05:07;22.90;47.00
21425;DHT22;10873;51.132;16.848;2024-01-27T10:07:36;22.80;46.80
21425;DHT22;10873;51.132;16.848;2024-01-27T10:10:03;22.80;46.90
21425;DHT22;10873;51.132;16.848;2024-01-27T10:12:31;22.90;47.20
21425;DHT22;10873;51.132;16.848;2024-01-27T10:14:58;22.90;48.00
21425;DHT22;10873;51.132;16.848;2024-01-27T10:17:24;23.00;52.90
21425;DHT22;10873;51.132;16.848;2024-01-27T10:20:02;23.30;54.90
21425;DHT22;10873;51.132;16.848;2024-01-27T10:22:43;23.70;55.00
21425;DHT22;10873;51.132;16.848;2024-01-27T10:25:10;24.20;55.00
21425;DHT22;10873;51.132;16.848;2024-01-27T10:27:37;24.50;54.50
21425;DHT22;10873;51.132;16.848;2024-01-27T10:30:04;24.90;53.60
21425;DHT22;10873;51.132;16.848;2024-01-27T10:32:30;25.30;53.50
21425;DHT22;10873;51.132;16.848;2024-01-27T10:35:03;25.60;53.60
21425;DHT22;10873;51.132;16.848;2024-01-27T10:37:29;25.90;53.40
21425;DHT22;10873;51.132;16.848;2024-01-27T10:40:05;26.20;53.00
21425;DHT22;10873;51.132;16.848;2024-01-27T10:42:37;26.50;52.40
21425;DHT22;10873;51.132;16.848;2024-01-27T10:45:04;26.80;51.90
21425;DHT22;10873;51.132;16.848;2024-01-27T10:47:35;27.10;51.10
21425;DHT22;10873;51.132;16.848;2024-01-27T10:50:02;27.30;50.00
21425;DHT22;10873;51.132;16.848;2024-01-27T10:52:31;27.50;49.70
21425;DHT22;10873;51.132;16.848;2024-01-27T10:54:59;27.70;49.00
21425;DHT22;10873;51.132;16.848;2024-01-27T10:57:31;27.90;48.40
21425;DHT22;10873;51.132;16.848;2024-01-27T10:59:58;28.10;47.90
21425;DHT22;10873;51.132;16.848;2024-01-27T11:02:27;28.20;47.50
21425;DHT22;10873;51.132;16.848;2024-01-27T11:04:54;28.30;47.30
21425;DHT22;10873;51.132;16.848;2024-01-27T11:07:21;28.40;47.00
21425;DHT22;10873;51.132;16.848;2024-01-27T11:09:50;28.50;46.30
21425;DHT22;10873;51.132;16.848;2024-01-27T11:12:21;28.60;46.40
21425;DHT22;10873;51.132;16.848;2024-01-27T11:14:50;28.80;46.30
21425;DHT22;10873;51.132;16.848;2024-01-27T11:17:26;28.80;46.00
21425;DHT22;10873;51.132;16.848;2024-01-27T11:19:56;29.00;45.70
21425;DHT22;10873;51.132;16.848;2024-01-27T11:22:26;29.10;45.60
21425;DHT22;10873;51.132;16.848;2024-01-27T11:24:52;29.20;45.20
21425;DHT22;10873;51.132;16.848;2024-01-27T11:27:26;29.30;45.10
21425;DHT22;10873;51.132;16.848;2024-01-27T11:29:56;29.00;44.80
21425;DHT22;10873;51.132;16.848;2024-01-27T11:32:23;28.60;47.20
21425;DHT22;10873;51.132;16.848;2024-01-27T11:34:49;28.20;46.40
21425;DHT22;10873;51.132;16.848;2024-01-27T11:37:16;27.80;46.50
21425;DHT22;10873;51.132;16.848;2024-01-27T11:39:42;27.50;46.80
21425;DHT22;10873;51.132;16.848;2024-01-27T11:42:09;27.20;46.70
21425;DHT22;10873;51.132;16.848;2024-01-27T11:45:14;27.00;45.90
21425;DHT22;10873;51.132;16.848;2024-01-27T11:47:40;26.70;45.00
21425;DHT22;10873;51.132;16.848;2024-01-27T11:50:07;26.50;44.60
21425;DHT22;10873;51.132;16.848;2024-01-27T11:52:35;26.40;44.20
21425;DHT22;10873;51.132;16.848;2024-01-27T11:55:01;26.20;45.40
21425;DHT22;10873;51.132;16.848;2024-01-27T11:57:28;26.10;47.60
21425;DHT22;10873;51.132;16.848;2024-01-27T11:59:54;26.00;47.20
21425;DHT22;10873;51.132;16.848;2024-01-27T12:02:21;25.90;47.90
21425;DHT22;10873;51.132;16.848;2024-01-27T12:04:48;25.80;48.00
21425;DHT22;10873;51.132;16.848;2024-01-27T12:07:16;25.90;51.70
21425;DHT22;10873;51.132;16.848;2024-01-27T12:09:44;26.20;52.30
21425;DHT22;10873;51.132;16.848;2024-01-27T12:12:12;26.60;52.70
21425;DHT22;10873;51.132;16.848;2024-01-27T12:14:39;26.90;52.80
21425;DHT22;10873;51.132;16.848;2024-01-27T12:17:08;27.20;52.60
21425;DHT22;10873;51.132;16.848;2024-01-27T12:22:34;27.90;52.90
21425;DHT22;10873;51.132;16.848;2024-01-27T12:25:09;28.30;52.90
21425;DHT22;10873;51.132;16.848;2024-01-27T12:27:38;28.40;52.50
21425;DHT22;10873;51.132;16.848;2024-01-27T12:30:13;28.60;52.60
21425;DHT22;10873;51.132;16.848;2024-01-27T12:32:42;28.70;53.00
21425;DHT22;10873;51.132;16.848;2024-01-27T12:35:29;28.90;52.80
21425;DHT22;10873;51.132;16.848;2024-01-27T12:38:01;29.00;53.30
21425;DHT22;10873;51.132;16.848;2024-01-27T12:40:33;28.80;51.30
21425;DHT22;10873;51.132;16.848;2024-01-27T12:43:00;28.40;51.90
21425;DHT22;10873;51.132;16.848;2024-01-27T12:45:32;28.30;52.80
21425;DHT22;10873;51.132;16.848;2024-01-27T12:48:02;28.40;52.00
21425;DHT22;10873;51.132;16.848;2024-01-27T12:50:38;28.60;52.30
21425;DHT22;10873;51.132;16.848;2024-01-27T12:53:11;28.70;50.60
21425;DHT22;10873;51.132;16.848;2024-01-27T12:55:39;28.90;49.90
21425;DHT22;10873;51.132;16.848;2024-01-27T12:58:07;29.00;48.80
21425;DHT22;10873;51.132;16.848;2024-01-27T13:00:36;29.20;48.50
21425;DHT22;10873;51.132;16.848;2024-01-27T13:03:04;29.30;47.10
21425;DHT22;10873;51.132;16.848;2024-01-27T13:05:40;29.40;46.40
21425;DHT22;10873;51.132;16.848;2024-01-27T13:08:09;29.40;46.20
21425;DHT22;10873;51.132;16.848;2024-01-27T13:10:41;29.50;46.10
21425;DHT22;10873;51.132;16.848;2024-01-27T13:13:09;29.60;45.50
21425;DHT22;10873;51.132;16.848;2024-01-27T13:15:35;29.70;45.00
21425;DHT22;10873;51.132;16.848;2024-01-27T13:18:06;29.70;44.90
21425;DHT22;10873;51.132;16.848;2024-01-27T13:20:37;29.80;44.50
21425;DHT22;10873;51.132;16.848;2024-01-27T13:23:06;29.90;44.50
21425;DHT22;10873;51.132;16.848;2024-01-27T13:25:34;30.00;44.40
21425;DHT22;10873;51.132;16.848;2024-01-27T13:28:04;30.10;44.40
21425;DHT22;10873;51.132;16.848;2024-01-27T13:30:33;30.20;44.20
21425;DHT22;10873;51.132;16.848;2024-01-27T13:32:59;30.30;43.60
21425;DHT22;10873;51.132;16.848;2024-01-27T13:35:25;29.90;44.50
21425;DHT22;10873;51.132;16.848;2024-01-27T13:37:52;29.50;45.00
21425;DHT22;10873;51.132;16.848;2024-01-27T13:40:18;29.10;45.60
21425;DHT22;10873;51.132;16.848;2024-01-27T13:42:47;28.70;45.70
21425;DHT22;10873;51.132;16.848;2024-01-27T13:45:13;28.30;45.50
21425;DHT22;10873;51.132;16.848;2024-01-27T13:47:44;28.10;45.70
21425;DHT22;10873;51.132;16.848;2024-01-27T13:50:11;27.80;44.90
21425;DHT22;10873;51.132;16.848;2024-01-27T13:52:38;27.60;44.10
21425;DHT22;10873;51.132;16.848;2024-01-27T13:55:04;27.40;43.60
21425;DHT22;10873;51.132;16.848;2024-01-27T13:57:31;27.20;43.00
21425;DHT22;10873;51.132;16.848;2024-01-27T13:59:58;27.00;42.70
21425;DHT22;10873;51.132;16.848;2024-01-27T14:02:24;26.90;42.50
21425;DHT22;10873;51.132;16.848;2024-01-27T14:04:52;26.80;42.30
21425;DHT22;10873;51.132;16.848;2024-01-27T14:07:18;26.60;42.30
21425;DHT22;10873;51.132;16.848;2024-01-27T14:09:44;26.50;42.20
21425;DHT22;10873;51.132;16.848;2024-01-27T14:12:11;26.40;42.00
21425;DHT22;10873;51.132;16.848;2024-01-27T14:14:38;26.30;42.00
21425;DHT22;10873;51.132;16.848;2024-01-27T14:17:07;26.20;42.00
21425;DHT22;10873;51.132;16.848;2024-01-27T14:19:33;26.10;41.80
21425;DHT22;10873;51.132;16.848;2024-01-27T14:21:59;26.00;41.70
21425;DHT22;10873;51.132;16.848;2024-01-27T14:24:27;26.00;41.60
21425;DHT22;10873;51.132;16.848;2024-01-27T14:26:54;25.90;41.70
21425;DHT22;10873;51.132;16.848;2024-01-27T14:29:20;25.80;41.60
21425;DHT22;10873;51.132;16.848;2024-01-27T14:31:47;25.80;41.70
21425;DHT22;10873;51.132;16.848;2024-01-27T14:34:15;25.70;41.70
21425;DHT22;10873;51.132;16.848;2024-01-27T14:36:42;25.70;41.70
21425;DHT22;10873;51.132;16.848;2024-01-27T14:39:10;25.60;41.60
21425;DHT22;10873;51.132;16.848;2024-01-27T14:41:37;25.60;41.60
21425;DHT22;10873;51.132;16.848;2024-01-27T14:44:03;25.50;41.50
21425;DHT22;10873;51.132;16.848;2024-01-27T14:46:30;25.40;41.50
21425;DHT22;10873;51.132;16.848;2024-01-27T14:48:56;25.40;41.50
21425;DHT22;10873;51.132;16.848;2024-01-27T14:51:23;25.40;41.60
21425;DHT22;10873;51.132;16.848;2024-01-27T14:53:49;25.30;41.60
21425;DHT22;10873;51.132;16.848;2024-01-27T14:56:15;25.20;42.90
21425;DHT22;10873;51.132;16.848;2024-01-27T14:58:41;25.20;43.50
21425;DHT22;10873;51.132;16.848;2024-01-27T15:01:07;25.20;43.90
21425;DHT22;10873;51.132;16.848;2024-01-27T15:03:33;25.10;44.10
21425;DHT22;10873;51.132;16.848;2024-01-27T15:06:00;25.10;45.40
21425;DHT22;10873;51.132;16.848;2024-01-27T15:08:27;25.10;45.70
21425;DHT22;10873;51.132;16.848;2024-01-27T15:10:54;25.00;46.60
21425;DHT22;10873;51.132;16.848;2024-01-27T15:13:19;25.00;47.00
21425;DHT22;10873;51.132;16.848;2024-01-27T15:15:47;24.90;47.30
21425;DHT22;10873;51.132;16.848;2024-01-27T15:18:13;24.90;47.60
21425;DHT22;10873;51.132;16.848;2024-01-27T15:20:39;24.90;47.50